Terminal Aerodrome Forecast
Issued by NWS

Home | Current Version | Previous Version | Text Only | Print | Product List | Glossary On
Versions: 1 2 3 4 5 6 7 8 9 10 11 12
000
FTUS43 KIND 301132
TAFBMG
TAF
KBMG 301132Z 3012/3112 21001KT 6SM BR SCT100
     FM301330 23005KT P6SM SCT040 BKN100
     FM301700 20006KT P6SM VCTS BKN050CB
     FM310200 18004KT P6SM BKN100
     FM310900 18003KT 4SM BR BKN100
      AMD LTD TO CLD VIS AND WIND TIL 301300=

USA.gov is the U.S. government's official web portal to all federal, state and local government web resources and services.